This is the latest recevied weather packets stored in our database for station/object PY1LEO-13. If no packets are shown the sender has not sent any weather packets the latest 1 day(s).
| Time | Temp. | Humidity | Pressure | Rain* | Wind** | Luminosity | Snow |
|---|---|---|---|---|---|---|---|
| 1778089616 | 29.44° C | 55% | 1018.1 hPa | - | - | - | - |
| 1778089318 | 30° C | 54% | 1018.1 hPa | - | - | - | - |
| 1778089016 | 30.56° C | 53% | 1018.3 hPa | - | - | - | - |
| 1778088716 | 30° C | 55% | 1018.3 hPa | - | - | - | - |
| 1778088416 | 30.56° C | 54% | 1018.3 hPa | - | - | - | - |
| 1778088116 | 30.56° C | 53% | 1018.4 hPa | - | - | - | - |
| 1778087216 | 28.89° C | 58% | 1018.5 hPa | - | - | - | - |
| 1778086916 | 29.44° C | 57% | 1018.6 hPa | - | - | - | - |
| 1778086616 | 30° C | 55% | 1018.6 hPa | - | - | - | - |
| 1778086316 | 30° C | 55% | 1018.6 hPa | - | - | - | - |
| 1778085117 | 28.33° C | 61% | 1018.9 hPa | - | - | - | - |
| 1778084816 | 28.33° C | 61% | 1019 hPa | - | - | - | - |
| 1778083616 | 29.44° C | 56% | 1019.4 hPa | - | - | - | - |
| 1778083316 | 28.89° C | 58% | 1019.4 hPa | - | - | - | - |
| 1778082716 | 28.89° C | 58% | 1019.7 hPa | - | - | - | - |
| 1778081816 | 28.89° C | 57% | 1019.9 hPa | - | - | - | - |
| 1778081516 | 28.89° C | 58% | 1020 hPa | - | - | - | - |
| 1778080916 | 29.44° C | 57% | 1020.1 hPa | - | - | - | - |
| 1778078816 | 30° C | 57% | 1020.5 hPa | - | - | - | - |
| 1778077916 | 28.89° C | 59% | 1020.7 hPa | - | - | - | - |
| 1778077016 | 30° C | 57% | 1020.7 hPa | - | - | - | - |
| 1778076416 | 30° C | 56% | 1020.9 hPa | - | - | - | - |
| 1778075516 | 30° C | 57% | 1021.1 hPa | - | - | - | - |
| 1778073666 | 28.89° C | 58% | 1021.6 hPa | - | - | - | - |
| 1778072467 | 28.33° C | 60% | 1021.7 hPa | - | - | - | - |
* Rain since midnight (hover to see other rain measurements)
** Current wind speed in m/s (hover to see current wind gust speed)